sensor_id;sensor_type;location;lat;lon;timestamp;P1;durP1;ratioP1;P2;durP2;ratioP2
70467;SDS011;57934;51.532;7.684;2022-10-22T00:00:46;8.88;;;2.17;;
70467;SDS011;57934;51.532;7.684;2022-10-22T00:03:19;9.38;;;2.58;;
70467;SDS011;57934;51.532;7.684;2022-10-22T00:05:57;8.15;;;2.38;;
70467;SDS011;57934;51.532;7.684;2022-10-22T00:08:28;5.00;;;2.00;;
70467;SDS011;57934;51.532;7.684;2022-10-22T00:10:59;8.60;;;2.85;;
70467;SDS011;57934;51.532;7.684;2022-10-22T00:13:39;5.85;;;2.10;;
70467;SDS011;57934;51.532;7.684;2022-10-22T00:16:11;6.20;;;2.40;;
70467;SDS011;57934;51.532;7.684;2022-10-22T00:18:40;5.72;;;2.38;;
70467;SDS011;57934;51.532;7.684;2022-10-22T00:21:11;6.72;;;2.60;;
70467;SDS011;57934;51.532;7.684;2022-10-22T00:23:40;4.90;;;2.20;;
70467;SDS011;57934;51.532;7.684;2022-10-22T00:26:10;4.97;;;2.17;;
70467;SDS011;57934;51.532;7.684;2022-10-22T00:28:42;5.55;;;2.40;;
70467;SDS011;57934;51.532;7.684;2022-10-22T00:31:12;8.60;;;2.20;;
70467;SDS011;57934;51.532;7.684;2022-10-22T00:33:44;6.10;;;2.58;;
70467;SDS011;57934;51.532;7.684;2022-10-22T00:36:14;9.13;;;2.72;;
70467;SDS011;57934;51.532;7.684;2022-10-22T00:38:48;5.43;;;2.28;;
70467;SDS011;57934;51.532;7.684;2022-10-22T00:41:20;4.57;;;2.55;;
70467;SDS011;57934;51.532;7.684;2022-10-22T00:46:29;7.28;;;2.15;;
70467;SDS011;57934;51.532;7.684;2022-10-22T00:49:02;12.45;;;2.63;;
70467;SDS011;57934;51.532;7.684;2022-10-22T00:51:33;6.28;;;2.25;;
70467;SDS011;57934;51.532;7.684;2022-10-22T00:54:05;6.82;;;2.20;;
70467;SDS011;57934;51.532;7.684;2022-10-22T00:56:39;8.30;;;2.22;;
70467;SDS011;57934;51.532;7.684;2022-10-22T00:59:06;4.28;;;2.47;;
70467;SDS011;57934;51.532;7.684;2022-10-22T01:01:33;4.63;;;2.30;;
70467;SDS011;57934;51.532;7.684;2022-10-22T01:03:59;8.40;;;2.17;;
70467;SDS011;57934;51.532;7.684;2022-10-22T01:06:26;7.90;;;2.22;;
70467;SDS011;57934;51.532;7.684;2022-10-22T01:14:35;6.40;;;2.50;;
70467;SDS011;57934;51.532;7.684;2022-10-22T01:17:24;10.77;;;2.25;;
70467;SDS011;57934;51.532;7.684;2022-10-22T01:23:09;9.25;;;2.30;;
70467;SDS011;57934;51.532;7.684;2022-10-22T01:26:03;7.72;;;2.50;;
70467;SDS011;57934;51.532;7.684;2022-10-22T01:28:52;11.50;;;2.42;;
70467;SDS011;57934;51.532;7.684;2022-10-22T01:31:29;4.97;;;2.47;;
70467;SDS011;57934;51.532;7.684;2022-10-22T01:34:07;6.72;;;3.13;;
70467;SDS011;57934;51.532;7.684;2022-10-22T01:36:39;10.25;;;2.72;;
70467;SDS011;57934;51.532;7.684;2022-10-22T01:39:12;8.82;;;2.60;;
70467;SDS011;57934;51.532;7.684;2022-10-22T01:41:45;8.35;;;2.50;;
70467;SDS011;57934;51.532;7.684;2022-10-22T01:44:30;5.88;;;2.70;;
70467;SDS011;57934;51.532;7.684;2022-10-22T01:47:10;9.05;;;2.80;;
70467;SDS011;57934;51.532;7.684;2022-10-22T01:52:55;6.35;;;2.50;;
70467;SDS011;57934;51.532;7.684;2022-10-22T01:55:35;9.05;;;2.97;;
70467;SDS011;57934;51.532;7.684;2022-10-22T02:03:48;11.23;;;2.87;;
70467;SDS011;57934;51.532;7.684;2022-10-22T02:06:33;11.85;;;2.97;;
70467;SDS011;57934;51.532;7.684;2022-10-22T02:09:04;8.70;;;2.60;;
70467;SDS011;57934;51.532;7.684;2022-10-22T02:11:37;7.07;;;3.15;;
70467;SDS011;57934;51.532;7.684;2022-10-22T02:14:12;7.03;;;3.00;;
70467;SDS011;57934;51.532;7.684;2022-10-22T02:16:43;6.00;;;3.20;;
70467;SDS011;57934;51.532;7.684;2022-10-22T02:19:22;9.82;;;3.33;;
70467;SDS011;57934;51.532;7.684;2022-10-22T02:21:52;7.35;;;3.40;;
70467;SDS011;57934;51.532;7.684;2022-10-22T02:24:23;10.98;;;3.33;;
70467;SDS011;57934;51.532;7.684;2022-10-22T02:27:38;8.90;;;3.28;;
70467;SDS011;57934;51.532;7.684;2022-10-22T02:32:23;7.65;;;3.28;;
70467;SDS011;57934;51.532;7.684;2022-10-22T02:34:59;8.38;;;2.80;;
70467;SDS011;57934;51.532;7.684;2022-10-22T02:37:31;7.53;;;3.15;;
70467;SDS011;57934;51.532;7.684;2022-10-22T02:40:00;6.57;;;3.25;;
70467;SDS011;57934;51.532;7.684;2022-10-22T02:42:31;9.65;;;3.10;;
70467;SDS011;57934;51.532;7.684;2022-10-22T02:44:59;6.10;;;2.75;;
70467;SDS011;57934;51.532;7.684;2022-10-22T02:47:27;5.88;;;2.75;;
70467;SDS011;57934;51.532;7.684;2022-10-22T02:49:54;11.10;;;3.45;;
70467;SDS011;57934;51.532;7.684;2022-10-22T02:52:27;11.55;;;2.83;;
70467;SDS011;57934;51.532;7.684;2022-10-22T02:55:07;11.77;;;3.15;;
70467;SDS011;57934;51.532;7.684;2022-10-22T02:57:36;11.38;;;4.30;;
70467;SDS011;57934;51.532;7.684;2022-10-22T03:00:05;12.18;;;3.45;;
70467;SDS011;57934;51.532;7.684;2022-10-22T03:02:36;9.52;;;3.33;;
70467;SDS011;57934;51.532;7.684;2022-10-22T03:05:07;10.50;;;2.97;;
70467;SDS011;57934;51.532;7.684;2022-10-22T03:07:38;8.65;;;3.20;;
70467;SDS011;57934;51.532;7.684;2022-10-22T03:10:07;9.55;;;2.95;;
70467;SDS011;57934;51.532;7.684;2022-10-22T03:12:35;5.30;;;2.88;;
70467;SDS011;57934;51.532;7.684;2022-10-22T03:15:02;9.63;;;3.30;;
70467;SDS011;57934;51.532;7.684;2022-10-22T03:17:37;10.93;;;3.15;;
70467;SDS011;57934;51.532;7.684;2022-10-22T03:20:07;14.77;;;3.92;;
70467;SDS011;57934;51.532;7.684;2022-10-22T03:22:34;9.35;;;2.83;;
70467;SDS011;57934;51.532;7.684;2022-10-22T03:25:08;13.23;;;3.38;;
70467;SDS011;57934;51.532;7.684;2022-10-22T03:27:42;11.00;;;3.80;;
70467;SDS011;57934;51.532;7.684;2022-10-22T03:30:13;4.13;;;3.17;;
70467;SDS011;57934;51.532;7.684;2022-10-22T03:32:45;9.00;;;3.10;;
70467;SDS011;57934;51.532;7.684;2022-10-22T03:35:16;12.63;;;3.65;;
70467;SDS011;57934;51.532;7.684;2022-10-22T03:37:46;12.70;;;3.45;;
70467;SDS011;57934;51.532;7.684;2022-10-22T03:40:14;7.70;;;3.13;;
70467;SDS011;57934;51.532;7.684;2022-10-22T03:42:41;6.93;;;3.55;;
70467;SDS011;57934;51.532;7.684;2022-10-22T03:45:11;8.82;;;3.63;;
70467;SDS011;57934;51.532;7.684;2022-10-22T03:47:47;9.55;;;4.20;;
70467;SDS011;57934;51.532;7.684;2022-10-22T03:50:18;8.18;;;3.70;;
70467;SDS011;57934;51.532;7.684;2022-10-22T03:52:49;11.88;;;3.78;;
70467;SDS011;57934;51.532;7.684;2022-10-22T03:55:20;9.95;;;3.95;;
70467;SDS011;57934;51.532;7.684;2022-10-22T04:00:23;7.18;;;3.25;;
70467;SDS011;57934;51.532;7.684;2022-10-22T04:02:57;9.77;;;3.92;;
70467;SDS011;57934;51.532;7.684;2022-10-22T04:05:26;8.60;;;3.67;;
70467;SDS011;57934;51.532;7.684;2022-10-22T04:07:57;8.35;;;3.85;;
70467;SDS011;57934;51.532;7.684;2022-10-22T04:10:28;17.58;;;4.05;;
70467;SDS011;57934;51.532;7.684;2022-10-22T04:13:00;5.43;;;3.90;;
70467;SDS011;57934;51.532;7.684;2022-10-22T04:15:29;10.32;;;4.07;;
70467;SDS011;57934;51.532;7.684;2022-10-22T04:18:00;5.43;;;3.75;;
70467;SDS011;57934;51.532;7.684;2022-10-22T04:20:29;9.30;;;4.30;;
70467;SDS011;57934;51.532;7.684;2022-10-22T04:22:56;9.10;;;4.00;;
70467;SDS011;57934;51.532;7.684;2022-10-22T04:25:28;8.98;;;4.10;;
70467;SDS011;57934;51.532;7.684;2022-10-22T04:28:00;13.63;;;4.40;;
70467;SDS011;57934;51.532;7.684;2022-10-22T04:30:31;9.73;;;4.18;;
70467;SDS011;57934;51.532;7.684;2022-10-22T04:33:02;9.50;;;4.40;;
70467;SDS011;57934;51.532;7.684;2022-10-22T04:35:29;8.77;;;4.78;;
70467;SDS011;57934;51.532;7.684;2022-10-22T04:37:58;11.75;;;4.72;;
70467;SDS011;57934;51.532;7.684;2022-10-22T04:40:28;12.88;;;5.38;;
70467;SDS011;57934;51.532;7.684;2022-10-22T04:42:58;15.15;;;5.22;;
70467;SDS011;57934;51.532;7.684;2022-10-22T04:45:26;11.70;;;4.78;;
70467;SDS011;57934;51.532;7.684;2022-10-22T04:47:55;11.98;;;5.13;;
70467;SDS011;57934;51.532;7.684;2022-10-22T04:50:22;13.15;;;4.65;;
70467;SDS011;57934;51.532;7.684;2022-10-22T04:52:52;18.25;;;5.30;;
70467;SDS011;57934;51.532;7.684;2022-10-22T04:55:20;10.50;;;4.53;;
70467;SDS011;57934;51.532;7.684;2022-10-22T04:57:52;7.03;;;4.95;;
70467;SDS011;57934;51.532;7.684;2022-10-22T05:00:23;19.30;;;6.10;;
70467;SDS011;57934;51.532;7.684;2022-10-22T05:02:51;9.15;;;5.07;;
70467;SDS011;57934;51.532;7.684;2022-10-22T05:05:20;10.88;;;5.05;;
70467;SDS011;57934;51.532;7.684;2022-10-22T05:07:49;11.82;;;6.05;;
70467;SDS011;57934;51.532;7.684;2022-10-22T05:10:17;9.27;;;5.13;;
70467;SDS011;57934;51.532;7.684;2022-10-22T05:12:47;10.43;;;4.78;;
70467;SDS011;57934;51.532;7.684;2022-10-22T05:15:18;9.88;;;5.20;;
70467;SDS011;57934;51.532;7.684;2022-10-22T05:17:47;6.28;;;5.10;;
70467;SDS011;57934;51.532;7.684;2022-10-22T05:20:19;12.98;;;5.63;;
70467;SDS011;57934;51.532;7.684;2022-10-22T05:22:45;8.40;;;5.50;;
70467;SDS011;57934;51.532;7.684;2022-10-22T05:25:13;11.00;;;5.25;;
70467;SDS011;57934;51.532;7.684;2022-10-22T05:27:42;7.85;;;5.20;;
70467;SDS011;57934;51.532;7.684;2022-10-22T05:30:17;11.07;;;5.30;;
70467;SDS011;57934;51.532;7.684;2022-10-22T05:32:48;10.55;;;5.80;;
70467;SDS011;57934;51.532;7.684;2022-10-22T05:35:18;8.93;;;5.45;;
70467;SDS011;57934;51.532;7.684;2022-10-22T05:37:47;8.45;;;5.68;;
70467;SDS011;57934;51.532;7.684;2022-10-22T05:40:19;15.63;;;6.38;;
70467;SDS011;57934;51.532;7.684;2022-10-22T05:42:46;12.05;;;6.20;;
70467;SDS011;57934;51.532;7.684;2022-10-22T05:45:18;13.82;;;5.75;;
70467;SDS011;57934;51.532;7.684;2022-10-22T05:47:46;7.22;;;5.85;;
70467;SDS011;57934;51.532;7.684;2022-10-22T05:50:17;11.05;;;6.30;;
70467;SDS011;57934;51.532;7.684;2022-10-22T05:52:48;13.50;;;6.65;;
70467;SDS011;57934;51.532;7.684;2022-10-22T05:55:19;12.77;;;6.18;;
70467;SDS011;57934;51.532;7.684;2022-10-22T05:57:49;10.02;;;7.10;;
70467;SDS011;57934;51.532;7.684;2022-10-22T06:00:21;12.68;;;6.18;;
70467;SDS011;57934;51.532;7.684;2022-10-22T06:02:58;10.23;;;6.47;;
70467;SDS011;57934;51.532;7.684;2022-10-22T06:05:25;11.93;;;6.47;;
70467;SDS011;57934;51.532;7.684;2022-10-22T06:07:54;12.23;;;7.20;;
70467;SDS011;57934;51.532;7.684;2022-10-22T06:10:24;11.27;;;6.28;;
70467;SDS011;57934;51.532;7.684;2022-10-22T06:12:58;13.10;;;6.70;;
70467;SDS011;57934;51.532;7.684;2022-10-22T06:15:27;11.02;;;7.85;;
70467;SDS011;57934;51.532;7.684;2022-10-22T06:17:56;17.15;;;7.75;;
70467;SDS011;57934;51.532;7.684;2022-10-22T06:20:32;17.15;;;7.53;;
70467;SDS011;57934;51.532;7.684;2022-10-22T06:23:02;11.60;;;7.38;;
70467;SDS011;57934;51.532;7.684;2022-10-22T06:25:34;10.30;;;7.80;;
70467;SDS011;57934;51.532;7.684;2022-10-22T06:28:08;12.75;;;7.85;;
70467;SDS011;57934;51.532;7.684;2022-10-22T06:30:39;14.20;;;8.13;;
70467;SDS011;57934;51.532;7.684;2022-10-22T06:33:08;17.98;;;8.45;;
70467;SDS011;57934;51.532;7.684;2022-10-22T06:35:38;11.18;;;7.70;;
70467;SDS011;57934;51.532;7.684;2022-10-22T06:38:09;12.93;;;7.97;;
70467;SDS011;57934;51.532;7.684;2022-10-22T06:40:38;13.73;;;8.05;;
70467;SDS011;57934;51.532;7.684;2022-10-22T06:43:11;11.18;;;8.48;;
70467;SDS011;57934;51.532;7.684;2022-10-22T06:45:42;12.02;;;8.55;;
70467;SDS011;57934;51.532;7.684;2022-10-22T06:48:12;16.15;;;7.55;;
70467;SDS011;57934;51.532;7.684;2022-10-22T06:50:50;17.83;;;7.45;;
70467;SDS011;57934;51.532;7.684;2022-10-22T06:53:22;9.02;;;7.57;;
70467;SDS011;57934;51.532;7.684;2022-10-22T06:56:03;19.10;;;7.43;;
70467;SDS011;57934;51.532;7.684;2022-10-22T06:58:36;12.48;;;7.13;;
70467;SDS011;57934;51.532;7.684;2022-10-22T07:01:07;19.50;;;8.00;;
70467;SDS011;57934;51.532;7.684;2022-10-22T07:03:38;14.13;;;8.02;;
70467;SDS011;57934;51.532;7.684;2022-10-22T07:06:12;16.63;;;7.70;;
70467;SDS011;57934;51.532;7.684;2022-10-22T07:08:46;13.85;;;7.15;;
70467;SDS011;57934;51.532;7.684;2022-10-22T07:11:16;13.13;;;7.55;;
70467;SDS011;57934;51.532;7.684;2022-10-22T07:14:04;12.63;;;7.07;;
70467;SDS011;57934;51.532;7.684;2022-10-22T07:16:34;13.25;;;6.97;;
70467;SDS011;57934;51.532;7.684;2022-10-22T07:19:04;14.10;;;6.68;;
70467;SDS011;57934;51.532;7.684;2022-10-22T07:21:37;7.82;;;5.65;;
70467;SDS011;57934;51.532;7.684;2022-10-22T07:24:04;8.00;;;5.65;;
70467;SDS011;57934;51.532;7.684;2022-10-22T07:26:35;12.13;;;5.35;;
70467;SDS011;57934;51.532;7.684;2022-10-22T07:29:04;18.27;;;5.72;;
70467;SDS011;57934;51.532;7.684;2022-10-22T07:31:32;10.27;;;4.93;;
70467;SDS011;57934;51.532;7.684;2022-10-22T07:34:00;8.48;;;4.65;;
70467;SDS011;57934;51.532;7.684;2022-10-22T07:36:30;5.97;;;3.60;;
70467;SDS011;57934;51.532;7.684;2022-10-22T07:39:01;8.20;;;3.80;;
70467;SDS011;57934;51.532;7.684;2022-10-22T07:41:35;6.97;;;3.75;;
70467;SDS011;57934;51.532;7.684;2022-10-22T07:44:11;8.85;;;3.78;;
70467;SDS011;57934;51.532;7.684;2022-10-22T07:46:43;9.60;;;3.40;;
70467;SDS011;57934;51.532;7.684;2022-10-22T07:49:16;7.13;;;2.95;;
70467;SDS011;57934;51.532;7.684;2022-10-22T07:51:43;9.82;;;3.00;;
70467;SDS011;57934;51.532;7.684;2022-10-22T07:54:09;11.65;;;3.03;;
70467;SDS011;57934;51.532;7.684;2022-10-22T07:56:40;6.85;;;3.05;;
70467;SDS011;57934;51.532;7.684;2022-10-22T07:59:08;8.13;;;3.25;;
70467;SDS011;57934;51.532;7.684;2022-10-22T08:01:38;5.80;;;2.80;;
70467;SDS011;57934;51.532;7.684;2022-10-22T08:04:08;4.40;;;2.75;;
70467;SDS011;57934;51.532;7.684;2022-10-22T08:06:37;9.15;;;2.78;;
70467;SDS011;57934;51.532;7.684;2022-10-22T08:09:09;13.63;;;3.47;;
70467;SDS011;57934;51.532;7.684;2022-10-22T08:11:44;8.57;;;3.33;;
70467;SDS011;57934;51.532;7.684;2022-10-22T08:14:18;9.70;;;3.08;;
70467;SDS011;57934;51.532;7.684;2022-10-22T08:16:48;9.88;;;3.15;;
70467;SDS011;57934;51.532;7.684;2022-10-22T08:19:19;5.80;;;2.20;;
70467;SDS011;57934;51.532;7.684;2022-10-22T08:21:48;4.13;;;2.60;;
70467;SDS011;57934;51.532;7.684;2022-10-22T08:24:16;10.38;;;2.90;;
70467;SDS011;57934;51.532;7.684;2022-10-22T08:26:47;6.43;;;2.63;;
70467;SDS011;57934;51.532;7.684;2022-10-22T08:29:17;6.05;;;2.60;;
70467;SDS011;57934;51.532;7.684;2022-10-22T08:31:49;13.07;;;2.65;;
70467;SDS011;57934;51.532;7.684;2022-10-22T08:34:19;6.95;;;2.10;;
70467;SDS011;57934;51.532;7.684;2022-10-22T08:36:49;10.02;;;2.60;;
70467;SDS011;57934;51.532;7.684;2022-10-22T08:39:16;7.60;;;2.20;;
70467;SDS011;57934;51.532;7.684;2022-10-22T08:50:46;7.95;;;2.60;;
70467;SDS011;57934;51.532;7.684;2022-10-22T08:53:20;4.03;;;2.10;;
70467;SDS011;57934;51.532;7.684;2022-10-22T08:56:20;6.72;;;2.00;;
70467;SDS011;57934;51.532;7.684;2022-10-22T08:59:36;8.18;;;1.90;;
70467;SDS011;57934;51.532;7.684;2022-10-22T09:02:01;6.40;;;2.10;;
70467;SDS011;57934;51.532;7.684;2022-10-22T09:04:45;5.97;;;1.85;;
70467;SDS011;57934;51.532;7.684;2022-10-22T09:07:23;9.57;;;2.33;;
70467;SDS011;57934;51.532;7.684;2022-10-22T09:09:54;7.93;;;2.33;;
70467;SDS011;57934;51.532;7.684;2022-10-22T09:12:27;8.75;;;2.10;;
70467;SDS011;57934;51.532;7.684;2022-10-22T09:15:02;8.23;;;2.20;;
70467;SDS011;57934;51.532;7.684;2022-10-22T09:17:58;8.00;;;1.90;;
70467;SDS011;57934;51.532;7.684;2022-10-22T09:20:35;6.10;;;1.92;;
70467;SDS011;57934;51.532;7.684;2022-10-22T09:25:50;8.95;;;2.10;;
70467;SDS011;57934;51.532;7.684;2022-10-22T09:28:23;10.13;;;1.70;;
70467;SDS011;57934;51.532;7.684;2022-10-22T09:30:53;10.15;;;2.03;;
70467;SDS011;57934;51.532;7.684;2022-10-22T09:35:57;5.57;;;2.10;;
70467;SDS011;57934;51.532;7.684;2022-10-22T09:38:38;9.15;;;2.00;;
70467;SDS011;57934;51.532;7.684;2022-10-22T09:41:15;5.28;;;2.00;;
70467;SDS011;57934;51.532;7.684;2022-10-22T09:43:48;8.32;;;2.42;;
70467;SDS011;57934;51.532;7.684;2022-10-22T09:46:26;7.10;;;2.33;;
70467;SDS011;57934;51.532;7.684;2022-10-22T09:49:13;8.73;;;2.70;;
70467;SDS011;57934;51.532;7.684;2022-10-22T09:51:59;9.38;;;2.35;;
70467;SDS011;57934;51.532;7.684;2022-10-22T09:57:12;8.47;;;2.83;;
70467;SDS011;57934;51.532;7.684;2022-10-22T09:59:50;11.32;;;2.80;;
70467;SDS011;57934;51.532;7.684;2022-10-22T10:02:22;9.05;;;3.50;;
70467;SDS011;57934;51.532;7.684;2022-10-22T10:04:56;15.02;;;3.50;;
70467;SDS011;57934;51.532;7.684;2022-10-22T10:07:34;10.95;;;3.03;;
70467;SDS011;57934;51.532;7.684;2022-10-22T10:10:24;9.85;;;3.33;;
70467;SDS011;57934;51.532;7.684;2022-10-22T10:19:15;10.65;;;3.22;;
70467;SDS011;57934;51.532;7.684;2022-10-22T10:27:43;8.07;;;2.28;;
70467;SDS011;57934;51.532;7.684;2022-10-22T10:30:25;10.70;;;2.70;;
70467;SDS011;57934;51.532;7.684;2022-10-22T10:49:30;7.63;;;2.20;;
70467;SDS011;57934;51.532;7.684;2022-10-22T10:55:04;7.68;;;2.15;;
70467;SDS011;57934;51.532;7.684;2022-10-22T11:00:44;11.40;;;2.10;;
70467;SDS011;57934;51.532;7.684;2022-10-22T11:06:32;7.93;;;2.22;;
70467;SDS011;57934;51.532;7.684;2022-10-22T11:12:00;5.10;;;1.88;;
70467;SDS011;57934;51.532;7.684;2022-10-22T11:14:38;7.68;;;2.10;;
70467;SDS011;57934;51.532;7.684;2022-10-22T11:17:28;9.93;;;2.83;;
70467;SDS011;57934;51.532;7.684;2022-10-22T11:20:17;8.20;;;2.60;;
70467;SDS011;57934;51.532;7.684;2022-10-22T11:23:02;9.57;;;1.90;;
70467;SDS011;57934;51.532;7.684;2022-10-22T11:26:18;6.20;;;1.70;;
70467;SDS011;57934;51.532;7.684;2022-10-22T11:28:30;7.47;;;1.65;;
70467;SDS011;57934;51.532;7.684;2022-10-22T11:31:04;5.25;;;2.45;;
70467;SDS011;57934;51.532;7.684;2022-10-22T11:36:33;8.77;;;1.58;;
70467;SDS011;57934;51.532;7.684;2022-10-22T11:42:32;9.05;;;1.40;;
70467;SDS011;57934;51.532;7.684;2022-10-22T11:55:56;9.90;;;1.73;;
70467;SDS011;57934;51.532;7.684;2022-10-22T11:58:49;4.50;;;1.60;;
70467;SDS011;57934;51.532;7.684;2022-10-22T12:01:24;6.35;;;2.05;;
70467;SDS011;57934;51.532;7.684;2022-10-22T12:06:57;4.72;;;1.50;;
70467;SDS011;57934;51.532;7.684;2022-10-22T12:09:35;7.10;;;1.40;;
70467;SDS011;57934;51.532;7.684;2022-10-22T12:12:18;2.60;;;1.60;;
70467;SDS011;57934;51.532;7.684;2022-10-22T12:14:52;3.75;;;1.60;;
70467;SDS011;57934;51.532;7.684;2022-10-22T12:17:27;5.43;;;1.20;;
70467;SDS011;57934;51.532;7.684;2022-10-22T12:20:11;9.13;;;1.80;;
70467;SDS011;57934;51.532;7.684;2022-10-22T12:22:41;7.57;;;1.50;;
70467;SDS011;57934;51.532;7.684;2022-10-22T12:25:18;6.72;;;1.50;;
70467;SDS011;57934;51.532;7.684;2022-10-22T12:27:52;5.72;;;1.48;;
70467;SDS011;57934;51.532;7.684;2022-10-22T12:30:28;5.47;;;1.60;;
70467;SDS011;57934;51.532;7.684;2022-10-22T12:33:03;4.25;;;1.15;;
70467;SDS011;57934;51.532;7.684;2022-10-22T12:35:40;7.80;;;1.50;;
70467;SDS011;57934;51.532;7.684;2022-10-22T12:38:17;5.20;;;1.30;;
70467;SDS011;57934;51.532;7.684;2022-10-22T12:40:55;8.25;;;1.88;;
70467;SDS011;57934;51.532;7.684;2022-10-22T12:43:29;3.95;;;1.10;;
70467;SDS011;57934;51.532;7.684;2022-10-22T12:46:08;3.65;;;1.02;;
70467;SDS011;57934;51.532;7.684;2022-10-22T12:48:44;6.07;;;1.20;;
70467;SDS011;57934;51.532;7.684;2022-10-22T12:51:17;4.75;;;1.20;;
70467;SDS011;57934;51.532;7.684;2022-10-22T12:53:53;5.25;;;1.15;;
70467;SDS011;57934;51.532;7.684;2022-10-22T12:56:27;5.57;;;1.40;;
70467;SDS011;57934;51.532;7.684;2022-10-22T12:59:10;3.70;;;1.00;;
70467;SDS011;57934;51.532;7.684;2022-10-22T13:01:51;4.88;;;1.42;;
70467;SDS011;57934;51.532;7.684;2022-10-22T13:04:35;6.93;;;1.40;;
70467;SDS011;57934;51.532;7.684;2022-10-22T13:12:25;5.00;;;1.00;;
70467;SDS011;57934;51.532;7.684;2022-10-22T13:18:04;3.15;;;1.25;;
70467;SDS011;57934;51.532;7.684;2022-10-22T13:23:23;4.93;;;1.08;;
70467;SDS011;57934;51.532;7.684;2022-10-22T13:26:12;6.15;;;1.30;;
70467;SDS011;57934;51.532;7.684;2022-10-22T13:28:48;4.00;;;1.45;;
70467;SDS011;57934;51.532;7.684;2022-10-22T13:31:21;4.88;;;1.40;;
70467;SDS011;57934;51.532;7.684;2022-10-22T13:33:54;4.75;;;1.10;;
70467;SDS011;57934;51.532;7.684;2022-10-22T13:36:27;4.40;;;1.63;;
70467;SDS011;57934;51.532;7.684;2022-10-22T13:38:57;4.70;;;1.33;;
70467;SDS011;57934;51.532;7.684;2022-10-22T13:41:29;6.35;;;1.10;;
70467;SDS011;57934;51.532;7.684;2022-10-22T13:44:02;4.60;;;1.05;;
70467;SDS011;57934;51.532;7.684;2022-10-22T13:46:29;7.07;;;1.30;;
70467;SDS011;57934;51.532;7.684;2022-10-22T13:48:56;8.40;;;1.33;;
70467;SDS011;57934;51.532;7.684;2022-10-22T13:51:29;6.22;;;1.13;;
70467;SDS011;57934;51.532;7.684;2022-10-22T13:54:00;2.95;;;1.02;;
70467;SDS011;57934;51.532;7.684;2022-10-22T13:56:31;3.95;;;1.83;;
70467;SDS011;57934;51.532;7.684;2022-10-22T13:59:00;5.10;;;1.15;;
70467;SDS011;57934;51.532;7.684;2022-10-22T14:01:26;3.67;;;1.20;;
70467;SDS011;57934;51.532;7.684;2022-10-22T14:03:53;6.68;;;1.48;;
70467;SDS011;57934;51.532;7.684;2022-10-22T14:06:23;7.68;;;2.22;;
70467;SDS011;57934;51.532;7.684;2022-10-22T14:08:53;5.88;;;1.20;;
70467;SDS011;57934;51.532;7.684;2022-10-22T14:11:23;4.78;;;1.35;;
70467;SDS011;57934;51.532;7.684;2022-10-22T14:13:52;3.55;;;1.50;;
70467;SDS011;57934;51.532;7.684;2022-10-22T14:16:20;4.15;;;1.50;;
70467;SDS011;57934;51.532;7.684;2022-10-22T14:18:48;2.55;;;1.20;;
70467;SDS011;57934;51.532;7.684;2022-10-22T14:21:16;3.92;;;0.93;;
70467;SDS011;57934;51.532;7.684;2022-10-22T14:23:44;4.13;;;1.33;;
70467;SDS011;57934;51.532;7.684;2022-10-22T14:26:22;4.28;;;1.38;;
70467;SDS011;57934;51.532;7.684;2022-10-22T14:28:58;3.85;;;1.25;;
70467;SDS011;57934;51.532;7.684;2022-10-22T14:31:25;4.57;;;1.20;;
70467;SDS011;57934;51.532;7.684;2022-10-22T14:33:51;2.38;;;1.08;;
70467;SDS011;57934;51.532;7.684;2022-10-22T14:36:17;6.78;;;1.55;;
70467;SDS011;57934;51.532;7.684;2022-10-22T14:38:45;4.63;;;1.35;;
70467;SDS011;57934;51.532;7.684;2022-10-22T14:41:15;3.75;;;1.20;;
70467;SDS011;57934;51.532;7.684;2022-10-22T14:43:45;4.07;;;1.35;;
70467;SDS011;57934;51.532;7.684;2022-10-22T14:46:12;4.90;;;1.20;;
70467;SDS011;57934;51.532;7.684;2022-10-22T14:48:40;4.38;;;1.25;;
70467;SDS011;57934;51.532;7.684;2022-10-22T14:51:06;4.47;;;1.15;;
70467;SDS011;57934;51.532;7.684;2022-10-22T14:53:38;7.30;;;1.35;;
70467;SDS011;57934;51.532;7.684;2022-10-22T14:56:04;5.85;;;1.50;;
70467;SDS011;57934;51.532;7.684;2022-10-22T14:58:30;3.50;;;1.35;;
70467;SDS011;57934;51.532;7.684;2022-10-22T15:00:56;4.72;;;0.93;;
70467;SDS011;57934;51.532;7.684;2022-10-22T15:03:22;4.53;;;1.20;;
70467;SDS011;57934;51.532;7.684;2022-10-22T15:05:50;6.57;;;1.17;;
70467;SDS011;57934;51.532;7.684;2022-10-22T15:08:18;2.88;;;1.20;;
70467;SDS011;57934;51.532;7.684;2022-10-22T15:10:45;6.28;;;1.20;;
70467;SDS011;57934;51.532;7.684;2022-10-22T15:13:21;2.88;;;1.15;;
70467;SDS011;57934;51.532;7.684;2022-10-22T15:15:47;5.72;;;1.35;;
70467;SDS011;57934;51.532;7.684;2022-10-22T15:18:13;7.80;;;1.55;;
70467;SDS011;57934;51.532;7.684;2022-10-22T15:20:39;6.18;;;1.52;;
70467;SDS011;57934;51.532;7.684;2022-10-22T15:23:05;2.97;;;1.10;;
70467;SDS011;57934;51.532;7.684;2022-10-22T15:25:31;5.90;;;1.20;;
70467;SDS011;57934;51.532;7.684;2022-10-22T15:27:57;3.10;;;1.27;;
70467;SDS011;57934;51.532;7.684;2022-10-22T15:30:23;4.32;;;1.30;;
70467;SDS011;57934;51.532;7.684;2022-10-22T15:32:48;2.50;;;1.23;;
70467;SDS011;57934;51.532;7.684;2022-10-22T15:35:14;6.63;;;1.70;;
70467;SDS011;57934;51.532;7.684;2022-10-22T15:37:40;6.85;;;1.17;;
70467;SDS011;57934;51.532;7.684;2022-10-22T15:40:06;5.20;;;1.17;;
70467;SDS011;57934;51.532;7.684;2022-10-22T15:42:33;4.13;;;0.95;;
70467;SDS011;57934;51.532;7.684;2022-10-22T15:44:59;5.78;;;2.72;;
70467;SDS011;57934;51.532;7.684;2022-10-22T15:47:26;9.00;;;1.42;;
70467;SDS011;57934;51.532;7.684;2022-10-22T15:49:54;5.75;;;1.55;;
70467;SDS011;57934;51.532;7.684;2022-10-22T15:52:20;14.40;;;2.33;;
70467;SDS011;57934;51.532;7.684;2022-10-22T15:54:46;7.03;;;1.50;;
70467;SDS011;57934;51.532;7.684;2022-10-22T15:57:12;7.00;;;1.90;;
70467;SDS011;57934;51.532;7.684;2022-10-22T15:59:38;6.90;;;1.85;;
70467;SDS011;57934;51.532;7.684;2022-10-22T16:02:04;10.70;;;2.35;;
70467;SDS011;57934;51.532;7.684;2022-10-22T16:04:32;5.50;;;2.28;;
70467;SDS011;57934;51.532;7.684;2022-10-22T16:06:58;7.43;;;1.77;;
70467;SDS011;57934;51.532;7.684;2022-10-22T16:09:25;6.90;;;1.70;;
70467;SDS011;57934;51.532;7.684;2022-10-22T16:11:52;5.45;;;1.92;;
70467;SDS011;57934;51.532;7.684;2022-10-22T16:14:19;3.85;;;1.50;;
70467;SDS011;57934;51.532;7.684;2022-10-22T16:16:47;5.95;;;1.80;;
70467;SDS011;57934;51.532;7.684;2022-10-22T16:19:15;5.70;;;2.15;;
70467;SDS011;57934;51.532;7.684;2022-10-22T16:21:42;8.90;;;2.22;;
70467;SDS011;57934;51.532;7.684;2022-10-22T16:24:09;7.60;;;2.05;;
70467;SDS011;57934;51.532;7.684;2022-10-22T16:26:36;9.75;;;2.40;;
70467;SDS011;57934;51.532;7.684;2022-10-22T16:29:02;9.73;;;2.40;;
70467;SDS011;57934;51.532;7.684;2022-10-22T16:31:29;11.05;;;2.38;;
70467;SDS011;57934;51.532;7.684;2022-10-22T16:33:56;6.32;;;2.30;;
70467;SDS011;57934;51.532;7.684;2022-10-22T16:36:23;12.85;;;2.72;;
70467;SDS011;57934;51.532;7.684;2022-10-22T16:38:49;5.15;;;2.47;;
70467;SDS011;57934;51.532;7.684;2022-10-22T16:41:22;6.05;;;2.40;;
70467;SDS011;57934;51.532;7.684;2022-10-22T16:43:50;6.43;;;2.97;;
70467;SDS011;57934;51.532;7.684;2022-10-22T16:46:20;11.02;;;2.90;;
70467;SDS011;57934;51.532;7.684;2022-10-22T16:48:48;5.70;;;2.80;;
70467;SDS011;57934;51.532;7.684;2022-10-22T16:51:17;11.25;;;3.15;;
70467;SDS011;57934;51.532;7.684;2022-10-22T16:53:45;7.05;;;2.90;;
70467;SDS011;57934;51.532;7.684;2022-10-22T16:56:12;8.88;;;3.10;;
70467;SDS011;57934;51.532;7.684;2022-10-22T16:58:42;6.95;;;2.92;;
70467;SDS011;57934;51.532;7.684;2022-10-22T17:01:10;8.68;;;2.70;;
70467;SDS011;57934;51.532;7.684;2022-10-22T17:03:36;9.50;;;2.78;;
70467;SDS011;57934;51.532;7.684;2022-10-22T17:06:03;7.47;;;3.10;;